Time;durP1;ratioP1;P1;durP2;ratioP2;P2;SDS_P1;SDS_P2;PMS_P1;PMS_P2;Temp;Humidity;BMP_temperature;BMP_pressure;BME280_temperature;BME280_humidity;BME280_pressure;Samples;Min_cycle;Max_cycle;Signal;HPM_P1;HPM_P2
2022/03/26 00:01:36;;;;;;;31.80;19.98;;;7.60;52.50;;;;;;5087005;28;20248;-87
2022/03/26 00:04:03;;;;;;;27.60;20.35;;;7.50;52.20;;;;;;5073960;28;20226;-86
2022/03/26 00:06:30;;;;;;;31.73;22.50;;;7.50;51.60;;;;;;5073719;28;20207;-86
2022/03/26 00:08:57;;;;;;;30.05;18.90;;;7.60;51.80;;;;;;5084771;28;20203;-86
2022/03/26 00:11:24;;;;;;;33.58;22.02;;;7.50;52.10;;;;;;5079545;28;20219;-86
2022/03/26 00:13:51;;;;;;;28.73;20.00;;;7.50;52.20;;;;;;5081114;28;20195;-86
2022/03/26 00:16:18;;;;;;;28.55;18.67;;;7.50;52.60;;;;;;5093663;28;20264;-86
2022/03/26 00:18:46;;;;;;;29.63;21.15;;;7.40;52.70;;;;;;5087139;28;20318;-86
2022/03/26 00:21:13;;;;;;;29.25;19.02;;;7.40;53.30;;;;;;5094172;28;20226;-86
2022/03/26 00:23:40;;;;;;;38.10;21.10;;;7.40;53.00;;;;;;5087804;28;20244;-86
2022/03/26 00:26:07;;;;;;;34.35;20.50;;;7.30;53.00;;;;;;5093161;28;20234;-87
2022/03/26 00:28:36;;;;;;;35.00;21.75;;;7.30;53.80;;;;;;5081717;28;20207;-87
2022/03/26 00:31:03;;;;;;;33.60;22.23;;;7.30;53.40;;;;;;5089720;28;20198;-86
2022/03/26 00:33:31;;;;;;;30.05;20.50;;;7.30;53.50;;;;;;5081924;28;20203;-87
2022/03/26 00:35:59;;;;;;;31.38;21.23;;;7.20;54.40;;;;;;5093739;28;20234;-87
2022/03/26 00:38:26;;;;;;;29.88;20.15;;;7.10;54.10;;;;;;5074012;28;20829;-86
2022/03/26 00:40:54;;;;;;;29.33;20.23;;;7.10;53.70;;;;;;5077869;28;20222;-86
2022/03/26 00:43:21;;;;;;;39.50;22.50;;;7.10;53.60;;;;;;5090650;28;20277;-87
2022/03/26 00:45:48;;;;;;;32.97;22.38;;;6.90;54.40;;;;;;5095520;28;20256;-87
2022/03/26 00:48:15;;;;;;;31.20;19.77;;;6.90;54.80;;;;;;5091468;28;20195;-86
2022/03/26 00:50:42;;;;;;;34.47;21.90;;;6.80;54.40;;;;;;5076967;28;20199;-86
2022/03/26 00:53:10;;;;;;;36.28;19.95;;;6.80;54.70;;;;;;5091796;28;20244;-86
2022/03/26 00:55:37;;;;;;;40.38;21.15;;;6.70;54.80;;;;;;5072844;28;20295;-86
2022/03/26 00:58:04;;;;;;;33.13;21.75;;;6.70;54.70;;;;;;5076738;28;20195;-86
2022/03/26 01:00:31;;;;;;;37.03;21.40;;;6.70;54.80;;;;;;5077906;28;20217;-86
2022/03/26 01:02:59;;;;;;;40.60;23.98;;;6.60;55.20;;;;;;5090573;28;20566;-86
2022/03/26 01:05:26;;;;;;;30.42;21.05;;;6.60;55.50;;;;;;5061615;28;20203;-86
2022/03/26 01:07:54;;;;;;;34.65;21.73;;;6.50;55.90;;;;;;5076200;28;20638;-86
2022/03/26 01:10:23;;;;;;;31.92;21.58;;;6.50;55.60;;;;;;5090952;28;20218;-86
2022/03/26 01:12:51;;;;;;;32.00;21.17;;;6.50;55.00;;;;;;5083113;28;20246;-86
2022/03/26 01:15:18;;;;;;;30.92;21.83;;;6.40;55.60;;;;;;5072593;28;20195;-86
2022/03/26 01:17:46;;;;;;;35.58;23.50;;;6.30;56.00;;;;;;5089112;28;20431;-86
2022/03/26 01:20:13;;;;;;;36.65;23.55;;;6.30;55.60;;;;;;5092597;28;20191;-86
2022/03/26 01:22:40;;;;;;;29.35;20.55;;;6.30;55.20;;;;;;5084511;28;20208;-86
2022/03/26 01:25:09;;;;;;;34.78;22.27;;;6.30;55.00;;;;;;5092155;28;20205;-86
2022/03/26 01:27:39;;;;;;;35.38;20.52;;;6.30;55.00;;;;;;5085329;28;20568;-87
2022/03/26 01:30:08;;;;;;;34.22;21.55;;;6.30;55.50;;;;;;5090378;28;20195;-86
2022/03/26 01:32:36;;;;;;;34.88;20.73;;;6.30;55.70;;;;;;5082437;28;20290;-86
2022/03/26 01:35:04;;;;;;;28.77;20.33;;;6.30;55.30;;;;;;5083746;28;20557;-87
2022/03/26 01:37:31;;;;;;;40.33;21.63;;;6.20;55.40;;;;;;5079731;28;20211;-86
2022/03/26 01:39:59;;;;;;;33.15;21.00;;;6.30;55.50;;;;;;5083792;28;20204;-87
2022/03/26 01:42:26;;;;;;;35.80;22.98;;;6.20;56.40;;;;;;5071383;28;20685;-86
2022/03/26 01:44:54;;;;;;;34.63;22.20;;;6.10;55.70;;;;;;5072281;28;20246;-87
2022/03/26 01:47:21;;;;;;;32.00;22.38;;;6.10;55.60;;;;;;5072515;28;20625;-87
2022/03/26 01:49:48;;;;;;;34.97;21.83;;;6.10;55.80;;;;;;5072537;28;20199;-87
2022/03/26 01:52:15;;;;;;;30.88;21.13;;;6.20;55.50;;;;;;5071726;28;20192;-86
2022/03/26 01:54:43;;;;;;;41.97;23.40;;;6.10;55.50;;;;;;5073212;28;20214;-87
2022/03/26 01:57:11;;;;;;;33.45;20.70;;;6.10;56.10;;;;;;5081648;28;20199;-86
2022/03/26 01:59:38;;;;;;;32.55;20.20;;;6.00;55.90;;;;;;5089905;28;20285;-87
2022/03/26 02:02:09;;;;;;;37.28;24.65;;;6.00;56.10;;;;;;5089157;28;20202;-86
2022/03/26 02:04:36;;;;;;;31.70;20.30;;;5.90;56.40;;;;;;5074753;28;20195;-86
2022/03/26 02:07:04;;;;;;;33.65;21.70;;;5.90;56.30;;;;;;5070817;28;20284;-86
2022/03/26 02:09:35;;;;;;;32.22;21.35;;;5.90;56.50;;;;;;5068769;28;20269;-86
2022/03/26 02:12:04;;;;;;;36.55;22.27;;;5.70;57.00;;;;;;5059427;28;20219;-86
2022/03/26 02:14:32;;;;;;;32.63;21.17;;;5.70;56.80;;;;;;5076263;28;20195;-86
2022/03/26 02:16:59;;;;;;;33.95;22.70;;;5.70;56.70;;;;;;5072209;28;20277;-86
2022/03/26 02:19:28;;;;;;;35.13;20.80;;;5.60;57.10;;;;;;5071608;28;20209;-86
2022/03/26 02:21:57;;;;;;;31.77;20.17;;;5.70;57.40;;;;;;5089888;28;20214;-86
2022/03/26 02:24:25;;;;;;;33.50;21.45;;;5.60;57.60;;;;;;5088351;28;20653;-86
2022/03/26 02:26:52;;;;;;;31.83;21.75;;;5.50;57.40;;;;;;5091526;28;20205;-87
2022/03/26 02:29:19;;;;;;;29.77;22.05;;;5.50;57.10;;;;;;5085570;28;20225;-86
2022/03/26 02:31:47;;;;;;;30.88;19.75;;;5.40;57.60;;;;;;5081106;28;20569;-87
2022/03/26 02:34:15;;;;;;;35.17;21.30;;;5.50;58.00;;;;;;5086143;28;20252;-86
2022/03/26 02:36:42;;;;;;;34.00;20.17;;;5.50;57.60;;;;;;5071802;28;20567;-86
2022/03/26 02:39:10;;;;;;;33.25;20.85;;;5.40;57.40;;;;;;5076109;28;20194;-87
2022/03/26 02:41:39;;;;;;;34.60;21.60;;;5.30;57.50;;;;;;5070672;28;20311;-86
2022/03/26 02:44:06;;;;;;;28.63;21.02;;;5.40;57.60;;;;;;5072258;28;20198;-86
2022/03/26 02:46:33;;;;;;;35.15;20.90;;;5.40;57.70;;;;;;5072230;28;20195;-87
2022/03/26 02:49:00;;;;;;;31.90;22.33;;;5.30;57.60;;;;;;5084262;28;20213;-86
2022/03/26 02:51:27;;;;;;;37.83;22.90;;;5.30;57.50;;;;;;5086600;28;20194;-87
2022/03/26 02:53:54;;;;;;;31.08;20.55;;;5.30;57.60;;;;;;5080176;28;20190;-87
2022/03/26 02:56:22;;;;;;;38.17;21.92;;;5.40;57.60;;;;;;5077190;28;20252;-86
2022/03/26 02:58:49;;;;;;;32.67;22.05;;;5.40;58.00;;;;;;5071632;28;20286;-86
2022/03/26 03:01:20;;;;;;;33.50;21.38;;;5.40;58.00;;;;;;5071154;28;20211;-86
2022/03/26 03:03:47;;;;;;;28.05;20.05;;;5.40;58.00;;;;;;5070026;28;20219;-86
2022/03/26 03:06:14;;;;;;;32.03;20.48;;;5.40;57.70;;;;;;5086219;28;20199;-86
2022/03/26 03:08:41;;;;;;;29.90;21.00;;;5.30;57.60;;;;;;5071880;28;20289;-86
2022/03/26 03:11:08;;;;;;;31.92;21.73;;;5.30;58.00;;;;;;5079945;28;20257;-87
2022/03/26 03:13:38;;;;;;;28.85;20.20;;;5.20;58.70;;;;;;5087694;28;20215;-86
2022/03/26 03:16:05;;;;;;;31.13;21.75;;;5.20;58.60;;;;;;5077224;28;20210;-86
2022/03/26 03:18:32;;;;;;;32.45;21.33;;;5.10;58.70;;;;;;5094089;28;20214;-86
2022/03/26 03:21:00;;;;;;;31.88;20.95;;;5.20;58.50;;;;;;5094093;28;20277;-86
2022/03/26 03:23:27;;;;;;;31.15;20.58;;;5.10;58.10;;;;;;5094340;28;20234;-86
2022/03/26 03:25:54;;;;;;;31.92;20.38;;;5.20;57.90;;;;;;5055031;28;20226;-86
2022/03/26 03:28:20;;;;;;;38.85;20.58;;;5.20;57.80;;;;;;5089269;28;20202;-86
2022/03/26 03:30:49;;;;;;;32.08;20.15;;;5.20;58.40;;;;;;5081895;28;20282;-86
2022/03/26 03:33:15;;;;;;;29.92;19.60;;;5.30;58.40;;;;;;5088314;28;20211;-87
2022/03/26 03:35:42;;;;;;;37.28;23.42;;;5.30;58.50;;;;;;5075336;28;20264;-86
2022/03/26 03:38:09;;;;;;;29.65;19.60;;;5.20;58.20;;;;;;5095712;28;20509;-86
2022/03/26 03:40:36;;;;;;;29.13;19.85;;;4.90;58.20;;;;;;5082791;28;20199;-86
2022/03/26 03:43:03;;;;;;;33.58;21.17;;;5.10;58.10;;;;;;5073734;28;20258;-86
2022/03/26 03:45:30;;;;;;;29.67;19.65;;;5.10;58.00;;;;;;5074917;28;20265;-86
2022/03/26 03:47:58;;;;;;;32.10;19.13;;;5.00;58.00;;;;;;5079284;28;20234;-87
2022/03/26 03:50:25;;;;;;;31.65;20.30;;;4.90;58.50;;;;;;5074682;28;20207;-86
2022/03/26 03:52:52;;;;;;;29.65;20.30;;;4.90;59.50;;;;;;5075056;28;20207;-86
2022/03/26 03:55:19;;;;;;;32.95;22.05;;;4.80;59.90;;;;;;5091031;28;20246;-86
2022/03/26 03:57:46;;;;;;;34.60;20.77;;;4.80;60.40;;;;;;5068538;28;20951;-86
2022/03/26 04:00:15;;;;;;;27.95;18.90;;;4.80;60.40;;;;;;5091400;28;20230;-86
2022/03/26 04:02:43;;;;;;;27.98;18.55;;;4.70;60.10;;;;;;5093900;28;20218;-86
2022/03/26 04:05:11;;;;;;;32.80;19.92;;;4.70;61.20;;;;;;5092423;28;20234;-86
2022/03/26 04:07:38;;;;;;;30.02;19.63;;;4.50;67.90;;;;;;5087950;28;20287;-87
2022/03/26 04:10:07;;;;;;;30.98;19.83;;;4.70;59.50;;;;;;5088764;28;20668;-86
2022/03/26 04:12:34;;;;;;;33.60;20.40;;;4.60;59.10;;;;;;5075212;28;20219;-87
2022/03/26 04:15:01;;;;;;;33.05;21.58;;;4.50;59.40;;;;;;5090226;28;20234;-86
2022/03/26 04:17:28;;;;;;;27.63;19.33;;;4.40;68.00;;;;;;5076971;28;20264;-86
2022/03/26 04:19:55;;;;;;;34.22;21.45;;;4.50;59.40;;;;;;5074202;28;20264;-86
2022/03/26 04:22:24;;;;;;;33.10;20.63;;;4.40;59.40;;;;;;5076483;28;20296;-86
2022/03/26 04:24:50;;;;;;;31.23;21.35;;;4.30;60.20;;;;;;5078028;28;20191;-86
2022/03/26 04:27:41;;;;;;;33.40;21.17;;;4.10;61.70;;;;;;5082900;28;20199;-88
2022/03/26 04:30:10;;;;;;;33.58;20.55;;;4.30;61.20;;;;;;5092094;28;20206;-87
2022/03/26 04:32:36;;;;;;;31.25;19.20;;;4.20;61.00;;;;;;5091155;28;20681;-86
2022/03/26 04:35:04;;;;;;;30.10;19.88;;;4.10;61.10;;;;;;5091222;28;20238;-85
2022/03/26 04:37:33;;;;;;;27.98;20.30;;;4.10;61.10;;;;;;5080712;28;20199;-86
2022/03/26 04:40:00;;;;;;;31.67;20.45;;;4.20;61.20;;;;;;5087729;28;20226;-86
2022/03/26 04:42:27;;;;;;;34.20;21.25;;;4.20;60.30;;;;;;5092825;28;20319;-85
2022/03/26 04:44:54;;;;;;;31.10;20.48;;;4.20;60.80;;;;;;5091215;28;20263;-86
2022/03/26 04:47:21;;;;;;;25.52;18.13;;;4.00;61.60;;;;;;5091296;28;20221;-86
2022/03/26 04:49:48;;;;;;;35.00;20.40;;;4.60;63.00;;;;;;5081310;28;20203;-86
2022/03/26 04:52:15;;;;;;;30.33;20.20;;;3.90;62.80;;;;;;5086010;28;20708;-86
2022/03/26 04:54:44;;;;;;;33.25;19.42;;;3.90;63.20;;;;;;5088805;28;20199;-87
2022/03/26 04:57:12;;;;;;;29.45;19.88;;;3.90;62.70;;;;;;5092282;28;20260;-86
2022/03/26 04:59:42;;;;;;;30.67;19.15;;;3.90;72.60;;;;;;5086870;28;20203;-87
2022/03/26 05:02:09;;;;;;;33.55;22.50;;;3.80;63.50;;;;;;5081998;28;20309;-87
2022/03/26 05:04:36;;;;;;;35.58;19.85;;;4.60;73.90;;;;;;5074884;28;20249;-87
2022/03/26 05:07:45;;;;;;;29.05;19.42;;;3.90;63.90;;;;;;5060901;28;20218;-87
2022/03/26 05:09:53;;;;;;;28.55;19.25;;;3.90;63.10;;;;;;5088236;28;20211;-87
2022/03/26 05:12:19;;;;;;;30.52;19.25;;;4.00;61.50;;;;;;5087106;28;20261;-86
2022/03/26 05:14:48;;;;;;;30.40;20.98;;;3.80;62.70;;;;;;5091097;28;20195;-87
2022/03/26 05:17:15;;;;;;;31.55;20.25;;;3.90;63.30;;;;;;5090638;28;20202;-87
2022/03/26 05:19:42;;;;;;;28.80;19.65;;;3.90;62.40;;;;;;5081228;28;20241;-87
2022/03/26 05:22:09;;;;;;;35.80;20.95;;;3.80;63.30;;;;;;5088979;28;20214;-87
2022/03/26 05:24:39;;;;;;;32.78;20.77;;;3.60;71.80;;;;;;5071925;28;20207;-86
2022/03/26 05:27:08;;;;;;;30.70;19.63;;;3.60;64.90;;;;;;5087801;28;20598;-87
2022/03/26 05:29:35;;;;;;;31.77;18.23;;;3.70;65.20;;;;;;5083083;28;20194;-86
2022/03/26 05:32:02;;;;;;;28.23;18.30;;;3.80;64.70;;;;;;5088166;28;20195;-87
2022/03/26 05:34:29;;;;;;;29.15;20.30;;;3.70;64.60;;;;;;5084083;28;20206;-86
2022/03/26 05:36:56;;;;;;;30.02;19.73;;;3.80;64.50;;;;;;5075756;28;20203;-86
2022/03/26 05:39:23;;;;;;;28.92;19.60;;;3.90;73.70;;;;;;5081107;28;20669;-87
2022/03/26 05:41:51;;;;;;;32.95;21.35;;;3.80;64.40;;;;;;5070603;28;20638;-86
2022/03/26 05:44:19;;;;;;;29.15;19.30;;;3.90;64.30;;;;;;5086536;28;20202;-86
2022/03/26 05:46:46;;;;;;;28.48;19.55;;;3.90;64.00;;;;;;5084109;28;20562;-86
2022/03/26 05:49:16;;;;;;;30.00;18.52;;;4.00;64.30;;;;;;5086486;28;20226;-87
2022/03/26 05:51:44;;;;;;;35.45;19.98;;;3.90;64.90;;;;;;5087435;28;20230;-87
2022/03/26 05:54:12;;;;;;;36.70;20.98;;;4.00;65.80;;;;;;5083423;28;20606;-87
2022/03/26 05:56:39;;;;;;;35.13;20.30;;;4.00;65.70;;;;;;5091970;28;20244;-87
2022/03/26 05:59:09;;;;;;;26.98;18.50;;;4.10;65.40;;;;;;5084417;28;20570;-86
2022/03/26 06:01:38;;;;;;;29.95;19.08;;;4.10;65.50;;;;;;5076719;28;20207;-87
2022/03/26 06:04:08;;;;;;;26.25;19.20;;;4.10;65.40;;;;;;5075861;28;20199;-87
2022/03/26 06:06:35;;;;;;;33.42;21.75;;;4.20;65.10;;;;;;5079128;28;20198;-87
2022/03/26 06:09:02;;;;;;;32.10;18.92;;;4.40;71.70;;;;;;5082402;28;20592;-87
2022/03/26 06:11:29;;;;;;;29.08;19.65;;;4.30;64.00;;;;;;5076553;28;20730;-87
2022/03/26 06:13:56;;;;;;;29.38;18.70;;;4.50;64.60;;;;;;5082640;28;20306;-87
2022/03/26 06:16:23;;;;;;;32.53;19.25;;;4.50;63.10;;;;;;5073929;28;20196;-87
2022/03/26 06:18:51;;;;;;;33.25;20.02;;;4.60;62.90;;;;;;5083057;28;20196;-86
2022/03/26 06:21:18;;;;;;;32.28;19.85;;;4.60;63.10;;;;;;5080789;28;20677;-86
2022/03/26 06:23:45;;;;;;;30.10;18.52;;;4.70;63.70;;;;;;5091263;28;20234;-86
2022/03/26 06:26:15;;;;;;;33.97;20.42;;;4.80;63.30;;;;;;5077038;28;20199;-87
2022/03/26 06:28:42;;;;;;;36.42;19.40;;;4.90;72.10;;;;;;5081954;28;20194;-86
2022/03/26 06:31:09;;;;;;;36.67;20.98;;;4.80;63.10;;;;;;5090143;28;20692;-86
2022/03/26 06:33:36;;;;;;;35.83;19.45;;;4.90;62.10;;;;;;5081370;28;20222;-87
2022/03/26 06:36:05;;;;;;;31.33;19.00;;;5.00;62.30;;;;;;5074427;28;20195;-87
2022/03/26 06:38:38;;;;;;;36.17;20.98;;;5.10;61.70;;;;;;5091079;28;20199;-87
2022/03/26 06:41:07;;;;;;;32.50;19.98;;;5.20;62.10;;;;;;5077124;28;20195;-87
2022/03/26 06:43:34;;;;;;;36.72;20.60;;;5.40;62.60;;;;;;5055911;28;20401;-87
2022/03/26 06:46:01;;;;;;;35.08;20.45;;;5.50;61.40;;;;;;5081743;28;20199;-86
2022/03/26 06:48:28;;;;;;;36.08;20.65;;;5.60;60.30;;;;;;5086940;28;20554;-86
2022/03/26 06:50:55;;;;;;;37.28;22.17;;;5.70;60.00;;;;;;5074652;28;20238;-87
2022/03/26 06:53:23;;;;;;;31.95;20.27;;;5.80;59.50;;;;;;5068165;28;20223;-87
2022/03/26 06:55:50;;;;;;;33.15;20.55;;;5.90;66.40;;;;;;5070056;28;20223;-86
2022/03/26 06:58:17;;;;;;;33.33;20.45;;;5.90;59.10;;;;;;5074561;28;20607;-86
2022/03/26 07:00:44;;;;;;;34.22;20.55;;;6.40;67.00;;;;;;5081804;28;20220;-86
2022/03/26 07:03:11;;;;;;;33.67;20.83;;;6.10;59.40;;;;;;5089337;28;20587;-86
2022/03/26 07:05:38;;;;;;;36.78;21.23;;;7.10;67.30;;;;;;5074306;28;21276;-85
2022/03/26 07:08:05;;;;;;;31.58;19.55;;;6.50;65.60;;;;;;5059063;28;20287;-86
2022/03/26 07:10:36;;;;;;;33.55;19.75;;;6.40;58.60;;;;;;5095463;28;20231;-85
2022/03/26 07:13:03;;;;;;;32.72;20.63;;;6.70;65.80;;;;;;5089367;28;20657;-86
2022/03/26 07:15:31;;;;;;;29.42;19.38;;;6.60;58.20;;;;;;5074963;28;20282;-85
2022/03/26 07:18:01;;;;;;;33.47;20.63;;;6.70;58.30;;;;;;5084753;28;20200;-86
2022/03/26 07:20:29;;;;;;;28.80;19.02;;;6.80;64.70;;;;;;5092050;28;20194;-86
2022/03/26 07:22:56;;;;;;;37.70;20.50;;;6.70;64.30;;;;;;5093053;28;20206;-86
2022/03/26 07:25:34;;;;;;;33.55;20.55;;;6.80;57.50;;;;;;5066509;28;20195;-86
2022/03/26 07:28:07;;;;;;;33.28;19.95;;;6.90;57.50;;;;;;5078148;28;20716;-84
2022/03/26 07:30:37;;;;;;;29.83;20.77;;;7.00;57.20;;;;;;5076770;28;20195;-84
2022/03/26 07:33:06;;;;;;;34.95;20.05;;;7.80;57.80;;;;;;5079436;28;20222;-84
2022/03/26 07:35:33;;;;;;;31.02;21.08;;;7.20;57.20;;;;;;5095175;28;20237;-84
2022/03/26 07:38:00;;;;;;;30.30;19.48;;;7.30;57.10;;;;;;5076951;28;20238;-84
2022/03/26 07:40:29;;;;;;;38.00;20.23;;;7.40;57.10;;;;;;5089264;28;20274;-84
2022/03/26 07:42:55;;;;;;;29.25;20.83;;;7.50;56.50;;;;;;5086626;28;20216;-84
2022/03/26 07:45:24;;;;;;;36.03;20.95;;;7.50;60.60;;;;;;5075456;28;20371;-83
2022/03/26 07:47:56;;;;;;;27.15;18.42;;;7.50;55.90;;;;;;5084029;28;20285;-84
2022/03/26 07:50:26;;;;;;;30.25;18.55;;;7.50;55.60;;;;;;5086527;28;20253;-83
2022/03/26 07:52:55;;;;;;;31.05;21.30;;;7.70;55.30;;;;;;5085163;28;20202;-84
2022/03/26 07:55:25;;;;;;;34.90;19.55;;;7.80;54.90;;;;;;5094728;28;20769;-84
2022/03/26 07:57:51;;;;;;;31.40;21.25;;;7.80;55.50;;;;;;5091574;28;20221;-84
2022/03/26 08:00:19;;;;;;;31.35;20.05;;;7.90;55.20;;;;;;5075268;28;20207;-83
2022/03/26 08:02:48;;;;;;;31.60;20.83;;;8.00;55.60;;;;;;5091385;28;20218;-83
2022/03/26 08:05:18;;;;;;;26.33;19.05;;;8.10;54.90;;;;;;5074153;28;20565;-84
2022/03/26 08:07:44;;;;;;;31.67;19.40;;;8.20;54.60;;;;;;5072606;28;20300;-84
2022/03/26 08:10:11;;;;;;;43.70;21.98;;;8.30;54.40;;;;;;5077275;28;20244;-84
2022/03/26 08:12:38;;;;;;;31.90;18.88;;;8.40;54.50;;;;;;5074964;28;20192;-84
2022/03/26 08:15:07;;;;;;;36.00;20.77;;;8.50;54.30;;;;;;5094035;28;20200;-83
2022/03/26 08:17:34;;;;;;;39.85;21.08;;;8.60;53.80;;;;;;5083227;28;20286;-83
2022/03/26 08:20:03;;;;;;;32.08;19.15;;;8.80;54.30;;;;;;5074718;28;20621;-83
2022/03/26 08:22:29;;;;;;;31.48;20.45;;;8.90;53.80;;;;;;5066678;28;20660;-84
2022/03/26 08:24:57;;;;;;;32.33;21.05;;;9.00;53.90;;;;;;5071796;28;20627;-85
2022/03/26 08:27:24;;;;;;;34.72;21.35;;;9.10;53.40;;;;;;5069405;28;20293;-87
2022/03/26 08:29:52;;;;;;;32.30;19.38;;;9.10;53.40;;;;;;5065067;28;20202;-87
2022/03/26 08:32:19;;;;;;;31.60;21.90;;;9.40;53.70;;;;;;5069697;28;20197;-86
2022/03/26 08:34:46;;;;;;;45.45;22.13;;;9.50;52.90;;;;;;5075554;28;20337;-86
2022/03/26 08:37:15;;;;;;;30.05;19.42;;;9.50;52.70;;;;;;5069622;28;20206;-85
2022/03/26 08:39:42;;;;;;;33.00;22.92;;;9.60;56.10;;;;;;5066581;28;20825;-87
2022/03/26 08:42:09;;;;;;;32.85;20.85;;;9.70;52.30;;;;;;5064934;28;20221;-86
2022/03/26 08:44:36;;;;;;;32.38;22.00;;;9.80;52.50;;;;;;5065311;28;20218;-86
2022/03/26 08:47:05;;;;;;;29.87;20.27;;;9.90;52.30;;;;;;5066580;28;20226;-85
2022/03/26 08:49:33;;;;;;;33.00;20.85;;;10.10;51.80;;;;;;5072289;28;20652;-86
2022/03/26 08:52:00;;;;;;;28.42;20.50;;;10.70;54.60;;;;;;5066745;28;20300;-86
2022/03/26 08:54:29;;;;;;;33.47;22.13;;;10.50;51.60;;;;;;5068807;28;20222;-86
2022/03/26 08:56:56;;;;;;;48.47;23.37;;;10.70;50.90;;;;;;5066202;28;20666;-86
2022/03/26 08:59:23;;;;;;;32.00;21.13;;;10.60;50.40;;;;;;5070917;28;21049;-85
2022/03/26 09:01:55;;;;;;;37.07;22.30;;;10.80;50.40;;;;;;5073176;28;20692;-87
2022/03/26 09:04:22;;;;;;;35.17;22.90;;;10.90;50.60;;;;;;5067606;28;20644;-86
2022/03/26 09:06:50;;;;;;;43.93;21.27;;;11.00;50.60;;;;;;5063830;28;20725;-86
2022/03/26 09:09:17;;;;;;;36.03;21.40;;;11.10;51.00;;;;;;5068906;28;20653;-85
2022/03/26 09:11:47;;;;;;;33.47;21.30;;;11.10;49.90;;;;;;5066319;28;20614;-85
2022/03/26 09:14:14;;;;;;;37.07;22.67;;;11.20;50.10;;;;;;5074188;28;20605;-85
2022/03/26 09:16:44;;;;;;;37.90;23.07;;;11.30;50.00;;;;;;5069524;28;21152;-85
2022/03/26 09:19:11;;;;;;;36.17;21.30;;;11.50;49.50;;;;;;5065619;28;20675;-86
2022/03/26 09:21:38;;;;;;;39.80;22.83;;;;;;;;;;5065364;28;20698;-84
2022/03/26 09:24:05;;;;;;;31.87;22.23;;;11.50;48.90;;;;;;5070789;28;20771;-86
2022/03/26 09:26:32;;;;;;;36.47;24.65;;;11.60;49.60;;;;;;5063994;28;20784;-85
2022/03/26 09:29:00;;;;;;;35.77;22.20;;;11.70;49.10;;;;;;5070183;28;20294;-85
2022/03/26 09:31:27;;;;;;;35.80;22.43;;;11.90;49.50;;;;;;5090735;28;20645;-83
2022/03/26 09:33:54;;;;;;;28.63;20.47;;;12.00;49.40;;;;;;5076155;28;21260;-83
2022/03/26 09:36:21;;;;;;;35.63;22.77;;;12.10;49.00;;;;;;5072237;28;20686;-83
2022/03/26 09:38:48;;;;;;;31.87;22.60;;;12.20;48.70;;;;;;5070471;28;20613;-83
2022/03/26 09:41:16;;;;;;;41.63;21.87;;;12.40;48.30;;;;;;5073092;28;20624;-83
2022/03/26 09:43:43;;;;;;;33.97;19.97;;;12.30;48.00;;;;;;5065777;28;20653;-84
2022/03/26 09:46:12;;;;;;;30.57;19.50;;;12.40;48.70;;;;;;5075907;28;20625;-83
2022/03/26 09:48:39;;;;;;;37.70;21.60;;;12.60;48.20;;;;;;5092053;28;20667;-84
2022/03/26 09:51:06;;;;;;;31.43;18.97;;;12.70;48.30;;;;;;5076368;28;20702;-83
2022/03/26 09:53:35;;;;;;;34.80;20.90;;;12.70;47.70;;;;;;5075550;28;20698;-83
2022/03/26 09:56:02;;;;;;;34.20;21.23;;;12.80;48.10;;;;;;5073782;28;20739;-83
2022/03/26 09:58:29;;;;;;;33.90;20.77;;;12.80;47.60;;;;;;5082230;28;20629;-83
2022/03/26 10:00:57;;;;;;;36.05;25.25;;;12.80;47.80;;;;;;5069177;28;20734;-84
2022/03/26 10:03:25;;;;;;;41.10;23.77;;;13.00;48.10;;;;;;5069350;28;20221;-83
2022/03/26 10:06:02;;;;;;;40.70;25.00;;;13.00;47.10;;;;;;5070084;28;21167;-84
2022/03/26 10:08:29;;;;;;;33.80;22.50;;;13.30;48.40;;;;;;5067666;28;20733;-84
2022/03/26 10:10:56;;;;;;;44.70;24.67;;;13.50;47.40;;;;;;5064975;28;20649;-84
2022/03/26 10:13:39;;;;;;;31.67;22.20;;;13.40;47.20;;;;;;5068212;28;20784;-84
2022/03/26 10:16:08;;;;;;;32.83;23.17;;;13.50;47.10;;;;;;5067737;28;20679;-85
2022/03/26 10:18:38;;;;;;;39.80;22.37;;;13.40;46.40;;;;;;5070655;28;20629;-83
2022/03/26 10:21:08;;;;;;;36.87;22.97;;;13.60;47.20;;;;;;5067706;28;20718;-84
2022/03/26 10:23:35;;;;;;;40.63;23.17;;;13.80;47.60;;;;;;5065255;28;20740;-84
2022/03/26 10:26:07;;;;;;;35.40;22.03;;;14.10;47.30;;;;;;5073358;28;20618;-86
2022/03/26 10:28:34;;;;;;;36.30;23.20;;;14.30;46.60;;;;;;5071677;28;20618;-83
2022/03/26 10:34:10;;;;;;;36.50;21.70;;;14.80;44.10;;;;;;5066759;28;20628;-84
2022/03/26 10:36:38;;;;;;;30.20;21.97;;;15.00;43.80;;;;;;5067222;28;21467;-84
2022/03/26 10:39:06;;;;;;;27.70;20.50;;;15.20;43.40;;;;;;5064915;28;20659;-84
2022/03/26 10:41:34;;;;;;;35.42;24.27;;;15.40;43.50;;;;;;5065166;28;20810;-84
2022/03/26 10:44:10;;;;;;;39.50;24.58;;;15.40;42.90;;;;;;5066454;28;20739;-84
2022/03/26 10:46:46;;;;;;;43.13;26.50;;;15.60;47.50;;;;;;5070197;28;20879;-85
2022/03/26 10:49:24;;;;;;;33.93;22.67;;;15.50;44.70;;;;;;5065846;28;20616;-86
2022/03/26 10:51:53;;;;;;;31.20;22.67;;;15.50;44.10;;;;;;5068830;28;20634;-87
2022/03/26 10:54:27;;;;;;;33.37;21.07;;;15.40;43.40;;;;;;5065020;28;20636;-87
2022/03/26 10:56:54;;;;;;;37.53;22.97;;;15.20;43.90;;;;;;5072695;28;20612;-86
2022/03/26 10:59:23;;;;;;;30.90;23.07;;;15.30;44.60;;;;;;5072064;28;20624;-86
2022/03/26 11:01:50;;;;;;;33.50;23.87;;;15.30;43.70;;;;;;5067084;28;20626;-87
2022/03/26 11:04:19;;;;;;;36.93;23.43;;;15.40;44.50;;;;;;5068480;28;20698;-86
2022/03/26 11:06:48;;;;;;;33.90;24.20;;;15.80;44.70;;;;;;5070867;28;20616;-87
2022/03/26 11:09:16;;;;;;;29.57;20.67;;;15.80;42.20;;;;;;5064545;28;21304;-87
2022/03/26 11:11:45;;;;;;;39.00;21.63;;;16.00;41.50;;;;;;5072737;28;20655;-87
2022/03/26 11:14:15;;;;;;;34.27;22.80;;;16.10;41.60;;;;;;5071606;28;20628;-86
2022/03/26 11:17:02;;;;;;;30.87;21.53;;;16.30;42.20;;;;;;5089035;28;20619;-86
2022/03/26 11:19:42;;;;;;;33.17;21.73;;;16.30;40.70;;;;;;5067350;28;20693;-85
2022/03/26 11:22:37;;;;;;;28.97;20.43;;;16.30;40.70;;;;;;5063695;28;20624;-88
2022/03/26 11:25:40;;;;;;;30.13;19.87;;;16.40;40.50;;;;;;5074383;28;20645;-88
2022/03/26 11:28:39;;;;;;;28.83;21.60;;;15.80;39.80;;;;;;5067864;28;21162;-88
2022/03/26 11:31:12;;;;;;;35.00;22.07;;;16.50;39.60;;;;;;5069435;28;21146;-87
2022/03/26 11:33:39;;;;;;;26.90;20.10;;;16.60;39.50;;;;;;5070564;28;20640;-88
2022/03/26 11:36:11;;;;;;;27.63;20.03;;;16.60;38.60;;;;;;5071815;28;20694;-86
2022/03/26 11:38:39;;;;;;;28.30;18.63;;;16.70;39.40;;;;;;5072274;28;20725;-86
2022/03/26 11:41:10;;;;;;;25.83;19.70;;;16.50;37.90;;;;;;5071554;28;20816;-87
2022/03/26 11:43:53;;;;;;;29.37;21.73;;;16.50;38.60;;;;;;5071588;28;20208;-86
2022/03/26 11:52:25;;;;;;;30.27;21.47;;;16.60;39.20;;;;;;5068166;28;20605;-86
2022/03/26 11:54:57;;;;;;;28.03;21.07;;;16.60;39.80;;;;;;5062475;28;20646;-87
2022/03/26 11:57:27;;;;;;;32.00;20.43;;;16.50;40.70;;;;;;5072086;28;20693;-86
2022/03/26 11:59:54;;;;;;;29.95;20.05;;;16.60;39.50;;;;;;5065387;28;20758;-88
2022/03/26 12:02:26;;;;;;;25.23;19.07;;;16.60;39.30;;;;;;5081880;28;20218;-87
2022/03/26 12:04:56;;;;;;;26.30;18.33;;;16.60;38.80;;;;;;5073427;28;20758;-87
2022/03/26 12:07:28;;;;;;;26.40;18.73;;;16.80;37.90;;;;;;5083397;28;20693;-88
2022/03/26 12:10:11;;;;;;;26.27;19.40;;;16.90;37.30;;;;;;5092078;28;20757;-87
2022/03/26 12:12:52;;;;;;;26.30;18.83;;;16.80;37.10;;;;;;5077531;28;20568;-87
2022/03/26 12:15:24;;;;;;;24.40;17.20;;;16.90;36.90;;;;;;5072720;28;20722;-87
2022/03/26 12:17:52;;;;;;;24.37;18.10;;;17.00;37.50;;;;;;5086754;28;21198;-87
2022/03/26 12:20:22;;;;;;;27.73;18.90;;;17.00;36.60;;;;;;5093124;28;20752;-87
2022/03/26 12:22:52;;;;;;;24.67;17.10;;;16.90;37.20;;;;;;5079950;28;20644;-88
2022/03/26 12:25:32;;;;;;;26.47;18.30;;;17.00;36.80;;;;;;5078153;28;20638;-88
2022/03/26 12:27:59;;;;;;;28.10;18.67;;;17.00;38.50;;;;;;5073627;28;20621;-88
2022/03/26 12:30:26;;;;;;;19.77;16.80;;;16.90;37.90;;;;;;5072857;28;20738;-88
2022/03/26 12:32:54;;;;;;;24.93;17.57;;;17.10;37.80;;;;;;5075151;28;21189;-88
2022/03/26 12:35:21;;;;;;;21.17;15.93;;;17.20;36.70;;;;;;5084039;28;20689;-88
2022/03/26 12:37:51;;;;;;;22.83;18.13;;;17.20;37.90;;;;;;5085171;28;20625;-88
2022/03/26 12:40:20;;;;;;;23.40;17.60;;;17.20;37.20;;;;;;5086226;28;21102;-85
2022/03/26 12:42:53;;;;;;;26.90;18.23;;;17.20;36.60;;;;;;5074853;28;20627;-85
2022/03/26 12:45:21;;;;;;;30.57;18.33;;;17.30;36.50;;;;;;5070185;28;20657;-84
2022/03/26 12:47:49;;;;;;;22.77;17.50;;;17.10;37.30;;;;;;5069334;28;20686;-85
2022/03/26 12:50:20;;;;;;;20.90;14.43;;;17.30;35.00;;;;;;5068936;28;21193;-86